Startpagina
METAR-TAF:

METAR-TAF

Vliegvelden :

Internationale luchthaven van Cluj-Napoca

Cluj-Napoca, Roemenië

breedte: 46-47N, lengte: 023-34E, hoogte: 410 m

Actueel weer

Dit bericht is 25 minuten geleden gemaakt, om 10:30 UTC
Wind 2 kt uit variabele richting
Temperatuur 8°C
Vochtigheid 87%
Druk 1025 hPa
Zicht: 3000 m
Gebroken wolken op 1900 ft
Geheel bewolkt op 3600 ft
nevel

METAR: LRCL 141030Z VRB02KT 3000 BR BKN019 OVC036 08/06 Q1025 R07/29//95

Tijdstip: 12:55 (10:55 UTC)

Verwachting

Dit bericht is 2 uur en het 55 minuten geleden gemaakt, om 08:00 UTC
Verwachting geldig van 14 om 09 UTC tot 14 om 18 UTC
Wind 4 kt uit variabele richting
Zicht: 3000 m
Gebroken wolken op 1500 ft
Geheel bewolkt op 3000 ft
lichte regen, nevel
Wijzigt naar
van 14 om 09 UTC tot 14 om 11 UTC
Wind 10 kt uit het noordwesten
Zicht 10 km of meer
Gebroken wolken op 3000 ft

TAF: LRCL 140800Z 1409/1418 VRB04KT 3000 -RA BR BKN015 OVC030 BECMG 1409/1411 31010KT 9999 NSW BKN030

Waarnemingen en weersverwachtingen van meer dan 4000 vliegvelden (METAR en TAF).

De beschikbare stations zijn de gele en rode punten op de kaart.

Ga met uw muis naar het station om de naam te zien.

Klik dan om waarnemingen en weersverwachtingen te zien.

kaart wijzigen: klik op de groene knoppen met een zwart kruis om in te zoomen, op de groene knop met een streepje om uit te zoomen of op de groene pijlen voor aangrenzende kaarten.


METAR-TAF: